Carberry, Canada
Current Conditions -  °F | °C
As of 3:00 PM on Friday 31 Oct 2014 (Local Time) from CYBR Reporting Station
Broken Clouds Broken Clouds  
Wind Chill: 33°   Ceiling: 25000
Heat Index: 41°   Visibility: 15mi
Dew Point: 12°   Wind: 15mph
Humidity: 31%   Direction: 170°S
Pressure: 30.31"   Gusts: 24mph
Location:  49.87°N, 99.35°W
Report Text: CYBR 312000Z 17013G21KT 15SM FEW150 BKN250 05/M11 A3031 RMK AC2CI5 SLP290
Loading
Personal Weather Stations






























Interactive Weather Map
Tropical Storm Tracking
New forecast layout! Learn more

10-Day Weather Forecast

Advertisements
Track Severe Weather on mobile